Indianapolis International Airport Indianapolis US
ICAO: KIND
IATA: IND
Category: Large
Scheduled Services: Yes

Elevation: 797 ft
TransAlt. 18000 ft.

Airport Communications:
APP:119.3
ATIS:134.25
CLNC DEL:128.75
DEP:119.05
GND:121.8
TERRE HAUTE RDO:122.55
INDY TWR:120.9
UNICOM:122.95

KIND Zoom In..

Runways:

(A) RW 05L length 11200 ft width 150 ft
ILS 111.75 / hdg 47

(B) RW 05R length 10000 ft width 150 ft
ILS 111.15 / hdg 47

(C) RW 14 length 7280 ft width 150 ft
ILS 110.50 / hdg 137

(D) RW 23L length 10000 ft width 150 ft
ILS 111.15 / hdg 227

(E) RW 23R length 11200 ft width 150 ft
ILS 111.75 / hdg 227

(F) RW 32 length 7280 ft width 150 ft
ILS 110.50 / hdg 317

Location; KIND
Day. 20 / Time. 19.54 Zulu
* Altimeter: 29.70
* Temperature: 33° c. 91.4°f.
* Wind from: 240° Speed 25 kn with Gusts up to 32 kn.
Dewpoint: 16° c.
Visibility: 10 Statute Miles.
Clouds: Few 4000 ft.
Clouds: Scattered 5500 ft.
Clouds: Broken 25000 ft.
Conditions: Cumulonimbus.Conditions: Towering CB.

KIND 201954Z 24025G32KT 10SM FEW040 SCT055 BKN250 33/16 A2970 RMK AO2 PK WND 24035/1944 LTG DSNT E AND S SLP050 CB DSNT NE TCU DSNT NE-E AND NW T03330161


Wind From 240°
Speed 25 kn.

 
 
jpsmedia.com for Web Design worldairports.se 2018   terms of use